Terminal Aerodrome Forecast
Issued by NWS

Home | Current Version | Previous Version | Text Only | Print | Product List | Glossary On
Versions: 1 2 3 4 5 6 7 8 9 10 11 12 13 14 15 16 17 18 19 20 21 22 23 24
000
FTUS42 TJSJ 212330
TAFJPS
TAF
TJPS 212330Z 2200/2224 11010KT P6SM FEW030
     FM221300 13012KT P6SM SCT030 BKN060
     FM221600 16015KT P6SM VCSH SCT030 BKN060
     FM222330 11006KT P6SM FEW030=

USA.gov is the U.S. government's official web portal to all federal, state and local government web resources and services.